Terminal Aerodrome Forecast
Issued by NWS Twin Cities, MN

Home | Current Version | Previous Version | Graphics & Text | Print | Product List | Glossary On
Versions: 1 2 3 4 5 6 7 8 9 10 11 12 13 14 15 16
835
FTUS43 KMPX 250533
TAFEAU
TAF
KEAU 250533Z 2506/2606 22008KT P6SM -SHRA VCTS OVC080CB
     FM250700 21008KT P6SM SCT080 BKN150
     FM251800 25008KT P6SM FEW070=

USA.gov is the U.S. government's official web portal to all federal, state and local government web resources and services.